LFOPLFMP

Guest
Details From LFOP - Rouen Vallee De La Seine
To LFMP - Rivesaltes
Flight Number -
Tags Generated
Created
Modified
Stats Distance 405 nm / 750 km
Max Altitude 0 ft / 0 m
Waypoints 3
Social Downloads 0
Likes 0
Share VATSIM

Download

Looking for another format? Having issues loading an existing format? Contact us
Advertisement - Login to hide

Notes

Generated

Route

LFOP PPG LFMP

ID Type Via Altitude Latitude Longitude Leg Dist Tot Dist Heading (true) Name
O LFOP APT - 0 ft / 0 m 49.37947˚ 1.16845˚ - 0 nm - -
PPG VOR - 0 ft / 0 m 42.75047˚ 2.86714˚ 404 nm 404 nm 169° / 171° PERPIGNAN RIVESALTES VOR-DME
O LFMP APT - 0 ft / 0 m 42.73990˚ 2.86519˚ 0 nm 404 nm 188° / 188° Rivesaltes

Altitude Profile

Advertisement - Login to hide

Weather


0- 5 10 15 20 25 30 35+ Temperature / ° C

Clouds and Precipitation
Forecast for 2018-05-23 12:00 UTC. Updated 6 hours ago

Ground ~20,000 ft ~40,000 ft Winds

LFOP

Details ICAO LFOP (URO)
Name Rouen Vallee de la Seine
Region France
Timezone Europe/Paris (UTC+2.0)
Stats Elevation 512 ft / 156 m (AMSL)
Location 49.385211° 1.176192°
Runways 1
Magnetic Variation 0.244° E

METAR

LFOP 231700Z AUTO 03008KT 8000 OVC012 15/12 Q1019 NOSIG

Decode

TAF

TAF AMD LFOP 231449Z 2314/2412 02008KT 9999 BKN020 TEMPO 2315/2323 BKN012 BECMG 2323/2402 3000 BR OVC005 PROB40 TEMPO 2400/2409 1200 OVC002 BECMG 2410/2412 9999 NSW SCT020

Decode

Departure Runways

ID Width Length Bearing (true) Bearing (mag) Surface Threshold Offset Overrun Length
04 148 ft / 45 m 5,577 ft / 1,700 m 41.28° 41.04° Asphalt 0 ft / 0 m 0 ft / 0 m
22 148 ft / 45 m 5,577 ft / 1,700 m 221.29° 221.05° Asphalt 0 ft / 0 m 0 ft / 0 m

LFMP

Details ICAO LFMP (PGF)
Name Rivesaltes
Region France
Timezone Europe/Paris (UTC+2.0)
Stats Elevation 143 ft / 44 m (AMSL)
Location 42.740488° 2.870594°
Runways 2
Magnetic Variation 1.041° E

METAR

LFMP 231700Z AUTO 16004KT 090V230 CAVOK 25/15 Q1015 TEMPO SCT050CB BKN210

Decode

TAF

TAF LFMP 231400Z 2315/2415 13010KT CAVOK TEMPO 2315/2319 SCT050CB BKN210 BECMG 2318/2320 VRB04KT BECMG 2400/2402 OVC015 TEMPO 2402/2408 2000 BR BKN010 BECMG 2409/2411 09010KT BECMG 2413/2415 9999 SCT030

Decode

Destination Runways

ID Width Length Bearing (true) Bearing (mag) Surface Threshold Offset Overrun Length
13 66 ft / 20 m 4,231 ft / 1,290 m 127.54° 126.50° Asphalt 492 ft / 150 m 0 ft / 0 m
15 148 ft / 45 m 8,189 ft / 2,496 m 148.38° 147.34° Asphalt 0 ft / 0 m 230 ft / 70 m
31 66 ft / 20 m 4,231 ft / 1,290 m 307.55° 306.51° Asphalt 1,148 ft / 350 m 0 ft / 0 m
33 148 ft / 45 m 8,189 ft / 2,496 m 328.39° 327.35° Asphalt 558 ft / 170 m 230 ft / 70 m

Approach Navaids

Runway Type Ident Frequency Range Bearing (true) Bearing (mag) Slope Elevation
33 Localiser PL 111.75 MHz 18 nm / 33 km 328.30° 327.26° - 124 ft / 38 m (AMSL)
33 Glidescope PL 111.75 MHz 10 nm / 19 km 328.38° 327.34° 3.00° 124 ft / 38 m (AMSL)
33 DME PL 111.75 MHz 18 nm / 33 km - - - 183 ft / 56 m (AMSL)